sensor_id;sensor_type;location;lat;lon;timestamp;pressure;altitude;pressure_sealevel;temperature;humidity
77410;BME280;66481;51.332;22.804;2023-08-06T00:01:03;98171.50;;;19.35;99.77
77410;BME280;66481;51.332;22.804;2023-08-06T00:05:27;98173.59;;;19.33;100.00
77410;BME280;66481;51.332;22.804;2023-08-06T00:09:52;98160.38;;;19.38;99.97
77410;BME280;66481;51.332;22.804;2023-08-06T00:13:57;98155.22;;;19.43;99.81
77410;BME280;66481;51.332;22.804;2023-08-06T00:18:06;98147.13;;;19.57;98.58
77410;BME280;66481;51.332;22.804;2023-08-06T00:22:16;98145.69;;;19.61;98.60
77410;BME280;66481;51.332;22.804;2023-08-06T00:26:31;98141.53;;;19.65;98.68
77410;BME280;66481;51.332;22.804;2023-08-06T00:30:42;98125.84;;;19.62;98.81
77410;BME280;66481;51.332;22.804;2023-08-06T00:34:52;98118.66;;;19.56;99.05
77410;BME280;66481;51.332;22.804;2023-08-06T00:38:59;98111.03;;;19.46;99.70
77410;BME280;66481;51.332;22.804;2023-08-06T00:43:00;98115.56;;;19.45;99.68
77410;BME280;66481;51.332;22.804;2023-08-06T00:47:04;98108.78;;;19.36;99.70
77410;BME280;66481;51.332;22.804;2023-08-06T00:51:09;98113.31;;;19.35;100.00
77410;BME280;66481;51.332;22.804;2023-08-06T00:55:11;98112.28;;;19.37;99.87
77410;BME280;66481;51.332;22.804;2023-08-06T00:59:12;98116.41;;;19.32;100.00
77410;BME280;66481;51.332;22.804;2023-08-06T01:03:14;98120.34;;;19.30;100.00
77410;BME280;66481;51.332;22.804;2023-08-06T01:07:53;98100.97;;;19.28;99.88
77410;BME280;66481;51.332;22.804;2023-08-06T01:12:40;98103.25;;;19.24;99.74
77410;BME280;66481;51.332;22.804;2023-08-06T01:16:42;98100.31;;;19.26;100.00
77410;BME280;66481;51.332;22.804;2023-08-06T01:20:44;98101.19;;;19.20;100.00
77410;BME280;66481;51.332;22.804;2023-08-06T01:24:48;98092.13;;;19.07;100.00
77410;BME280;66481;51.332;22.804;2023-08-06T01:29:06;98099.75;;;18.97;100.00
77410;BME280;66481;51.332;22.804;2023-08-06T01:33:13;98087.56;;;18.94;100.00
77410;BME280;66481;51.332;22.804;2023-08-06T01:37:16;98066.78;;;18.90;100.00
77410;BME280;66481;51.332;22.804;2023-08-06T01:41:17;98077.06;;;18.93;100.00
77410;BME280;66481;51.332;22.804;2023-08-06T01:45:17;98071.69;;;18.93;100.00
77410;BME280;66481;51.332;22.804;2023-08-06T01:49:19;98065.94;;;18.89;100.00
77410;BME280;66481;51.332;22.804;2023-08-06T01:53:19;98074.81;;;18.90;100.00
77410;BME280;66481;51.332;22.804;2023-08-06T01:57:20;98062.63;;;18.94;100.00
77410;BME280;66481;51.332;22.804;2023-08-06T02:01:21;98058.28;;;18.93;100.00
77410;BME280;66481;51.332;22.804;2023-08-06T02:05:22;98059.16;;;18.87;100.00
77410;BME280;66481;51.332;22.804;2023-08-06T02:09:23;98055.84;;;18.85;100.00
77410;BME280;66481;51.332;22.804;2023-08-06T02:13:24;98046.53;;;18.80;100.00
77410;BME280;66481;51.332;22.804;2023-08-06T02:17:25;98038.09;;;18.77;100.00
77410;BME280;66481;51.332;22.804;2023-08-06T02:21:26;98024.69;;;18.70;100.00
77410;BME280;66481;51.332;22.804;2023-08-06T02:25:27;98027.38;;;18.70;100.00
77410;BME280;66481;51.332;22.804;2023-08-06T02:29:28;98025.31;;;18.66;100.00
77410;BME280;66481;51.332;22.804;2023-08-06T02:33:30;98016.44;;;18.65;100.00
77410;BME280;66481;51.332;22.804;2023-08-06T02:37:33;98015.63;;;18.65;100.00
77410;BME280;66481;51.332;22.804;2023-08-06T02:41:35;98006.16;;;18.69;100.00
77410;BME280;66481;51.332;22.804;2023-08-06T02:45:36;97995.66;;;18.67;100.00
77410;BME280;66481;51.332;22.804;2023-08-06T02:49:37;98005.13;;;18.63;100.00
77410;BME280;66481;51.332;22.804;2023-08-06T02:53:38;98009.03;;;18.60;100.00
77410;BME280;66481;51.332;22.804;2023-08-06T02:57:39;97999.34;;;18.53;100.00
77410;BME280;66481;51.332;22.804;2023-08-06T03:01:40;97996.25;;;18.56;100.00
77410;BME280;66481;51.332;22.804;2023-08-06T03:05:41;97985.34;;;18.57;100.00
77410;BME280;66481;51.332;22.804;2023-08-06T03:09:51;97971.34;;;18.62;99.72
77410;BME280;66481;51.332;22.804;2023-08-06T03:13:52;97967.41;;;18.58;99.77
77410;BME280;66481;51.332;22.804;2023-08-06T03:17:55;97963.50;;;18.67;99.40
77410;BME280;66481;51.332;22.804;2023-08-06T03:21:56;97963.91;;;18.77;98.48
77410;BME280;66481;51.332;22.804;2023-08-06T03:26:01;97954.09;;;19.16;96.81
77410;BME280;66481;51.332;22.804;2023-08-06T03:30:03;97945.00;;;19.69;93.52
77410;BME280;66481;51.332;22.804;2023-08-06T03:34:04;97950.66;;;20.18;91.18
77410;BME280;66481;51.332;22.804;2023-08-06T03:38:05;97949.56;;;20.51;89.33
77410;BME280;66481;51.332;22.804;2023-08-06T03:42:06;97940.16;;;20.60;88.23
77410;BME280;66481;51.332;22.804;2023-08-06T03:46:06;97937.00;;;21.26;85.07
77410;BME280;66481;51.332;22.804;2023-08-06T03:50:08;97929.91;;;21.50;84.38
77410;BME280;66481;51.332;22.804;2023-08-06T03:54:09;97935.19;;;21.56;83.88
77410;BME280;66481;51.332;22.804;2023-08-06T03:58:10;97929.44;;;21.53;83.14
77410;BME280;66481;51.332;22.804;2023-08-06T04:02:11;97936.91;;;21.81;81.78
77410;BME280;66481;51.332;22.804;2023-08-06T04:06:12;97944.81;;;22.18;80.08
77410;BME280;66481;51.332;22.804;2023-08-06T04:10:13;97945.50;;;22.56;78.75
77410;BME280;66481;51.332;22.804;2023-08-06T04:14:14;97956.38;;;22.49;78.55
77410;BME280;66481;51.332;22.804;2023-08-06T04:18:15;97944.91;;;22.42;77.92
77410;BME280;66481;51.332;22.804;2023-08-06T04:22:16;97951.91;;;23.02;76.98
77410;BME280;66481;51.332;22.804;2023-08-06T04:26:17;97953.50;;;23.67;74.33
77410;BME280;66481;51.332;22.804;2023-08-06T04:30:18;97945.25;;;24.02;72.51
77410;BME280;66481;51.332;22.804;2023-08-06T04:34:19;97955.41;;;23.55;73.51
77410;BME280;66481;51.332;22.804;2023-08-06T04:38:20;97947.94;;;23.74;72.85
77410;BME280;66481;51.332;22.804;2023-08-06T04:42:21;97945.75;;;23.71;72.34
77410;BME280;66481;51.332;22.804;2023-08-06T04:46:22;97941.78;;;23.90;72.56
77410;BME280;66481;51.332;22.804;2023-08-06T04:50:23;97933.69;;;23.90;71.59
77410;BME280;66481;51.332;22.804;2023-08-06T04:54:24;97940.50;;;24.10;70.47
77410;BME280;66481;51.332;22.804;2023-08-06T04:58:25;97929.25;;;24.52;69.91
77410;BME280;66481;51.332;22.804;2023-08-06T05:02:26;97920.91;;;24.53;68.90
77410;BME280;66481;51.332;22.804;2023-08-06T05:06:27;97912.94;;;24.81;68.28
77410;BME280;66481;51.332;22.804;2023-08-06T05:10:29;97915.06;;;24.78;68.34
77410;BME280;66481;51.332;22.804;2023-08-06T05:14:30;97909.22;;;25.09;67.55
77410;BME280;66481;51.332;22.804;2023-08-06T05:18:31;97908.72;;;25.12;67.74
77410;BME280;66481;51.332;22.804;2023-08-06T05:22:32;97916.06;;;26.15;64.48
77410;BME280;66481;51.332;22.804;2023-08-06T05:26:33;97927.06;;;26.03;65.22
77410;BME280;66481;51.332;22.804;2023-08-06T05:30:34;97917.09;;;26.46;63.72
77410;BME280;66481;51.332;22.804;2023-08-06T05:34:39;97915.13;;;26.74;63.38
77410;BME280;66481;51.332;22.804;2023-08-06T05:38:42;97915.97;;;26.05;64.25
77410;BME280;66481;51.332;22.804;2023-08-06T05:42:43;97918.09;;;26.30;63.88
77410;BME280;66481;51.332;22.804;2023-08-06T05:46:44;97920.13;;;26.55;61.95
77410;BME280;66481;51.332;22.804;2023-08-06T05:50:45;97916.72;;;26.65;62.55
77410;BME280;66481;51.332;22.804;2023-08-06T05:54:46;97911.63;;;27.42;61.57
77410;BME280;66481;51.332;22.804;2023-08-06T05:58:47;97900.59;;;28.36;58.72
77410;BME280;66481;51.332;22.804;2023-08-06T06:02:49;97883.19;;;28.11;58.94
77410;BME280;66481;51.332;22.804;2023-08-06T06:06:50;97888.56;;;27.50;60.30
77410;BME280;66481;51.332;22.804;2023-08-06T06:10:52;97875.31;;;28.25;58.23
77410;BME280;66481;51.332;22.804;2023-08-06T06:14:54;97866.53;;;27.31;60.86
77410;BME280;66481;51.332;22.804;2023-08-06T06:18:55;97869.59;;;28.06;59.02
77410;BME280;66481;51.332;22.804;2023-08-06T06:23:00;97874.66;;;28.85;59.10
77410;BME280;66481;51.332;22.804;2023-08-06T06:27:01;97870.38;;;28.58;57.30
77410;BME280;66481;51.332;22.804;2023-08-06T06:31:03;97871.88;;;29.55;55.82
77410;BME280;66481;51.332;22.804;2023-08-06T06:35:04;97861.50;;;29.07;55.55
77410;BME280;66481;51.332;22.804;2023-08-06T06:39:05;97878.06;;;29.21;56.54
77410;BME280;66481;51.332;22.804;2023-08-06T06:43:06;97866.03;;;28.62;56.84
77410;BME280;66481;51.332;22.804;2023-08-06T06:47:08;97872.16;;;28.99;56.29
77410;BME280;66481;51.332;22.804;2023-08-06T06:51:09;97876.97;;;29.17;54.86
77410;BME280;66481;51.332;22.804;2023-08-06T06:55:10;97871.25;;;28.23;57.19
77410;BME280;66481;51.332;22.804;2023-08-06T06:59:10;97879.91;;;28.61;57.23
77410;BME280;66481;51.332;22.804;2023-08-06T07:03:12;97868.00;;;29.12;55.41
77410;BME280;66481;51.332;22.804;2023-08-06T07:07:14;97865.63;;;29.50;54.54
77410;BME280;66481;51.332;22.804;2023-08-06T07:11:16;97861.88;;;29.40;55.24
77410;BME280;66481;51.332;22.804;2023-08-06T07:15:30;97857.59;;;30.08;53.62
77410;BME280;66481;51.332;22.804;2023-08-06T07:19:34;97862.66;;;29.91;53.79
77410;BME280;66481;51.332;22.804;2023-08-06T07:23:42;97849.78;;;31.03;52.43
77410;BME280;66481;51.332;22.804;2023-08-06T07:27:43;97843.28;;;30.75;51.75
77410;BME280;66481;51.332;22.804;2023-08-06T07:31:47;97856.13;;;30.16;52.37
77410;BME280;66481;51.332;22.804;2023-08-06T07:35:56;97855.69;;;30.86;51.77
77410;BME280;66481;51.332;22.804;2023-08-06T07:40:01;97847.22;;;31.12;52.23
77410;BME280;66481;51.332;22.804;2023-08-06T07:44:02;97857.00;;;30.46;53.42
77410;BME280;66481;51.332;22.804;2023-08-06T07:48:04;97849.22;;;30.82;50.25
77410;BME280;66481;51.332;22.804;2023-08-06T07:52:06;97839.44;;;29.93;53.32
77410;BME280;66481;51.332;22.804;2023-08-06T07:56:15;97842.38;;;29.68;53.89
77410;BME280;66481;51.332;22.804;2023-08-06T08:00:26;97848.06;;;30.35;52.35
77410;BME280;66481;51.332;22.804;2023-08-06T08:04:34;97825.13;;;31.08;50.26
77410;BME280;66481;51.332;22.804;2023-08-06T08:08:38;97827.81;;;31.33;50.09
77410;BME280;66481;51.332;22.804;2023-08-06T08:12:50;97813.78;;;31.58;49.92
77410;BME280;66481;51.332;22.804;2023-08-06T08:17:11;97821.91;;;31.63;50.49
77410;BME280;66481;51.332;22.804;2023-08-06T08:21:44;97822.63;;;31.69;49.14
77410;BME280;66481;51.332;22.804;2023-08-06T08:25:49;97819.34;;;30.67;51.12
77410;BME280;66481;51.332;22.804;2023-08-06T08:29:52;97804.00;;;30.95;50.90
77410;BME280;66481;51.332;22.804;2023-08-06T08:34:00;97831.94;;;30.87;50.71
77410;BME280;66481;51.332;22.804;2023-08-06T08:38:13;97824.34;;;30.84;51.67
77410;BME280;66481;51.332;22.804;2023-08-06T08:42:21;97797.66;;;31.38;50.38
77410;BME280;66481;51.332;22.804;2023-08-06T08:46:27;97797.06;;;31.41;50.97
77410;BME280;66481;51.332;22.804;2023-08-06T08:50:31;97777.31;;;31.63;48.42
77410;BME280;66481;51.332;22.804;2023-08-06T08:54:33;97801.03;;;30.67;50.30
77410;BME280;66481;51.332;22.804;2023-08-06T08:58:35;97777.13;;;30.78;51.70
77410;BME280;66481;51.332;22.804;2023-08-06T09:02:39;97778.16;;;30.63;51.44
77410;BME280;66481;51.332;22.804;2023-08-06T09:06:43;97757.56;;;31.14;50.21
77410;BME280;66481;51.332;22.804;2023-08-06T09:10:48;97791.38;;;31.37;49.73
77410;BME280;66481;51.332;22.804;2023-08-06T09:14:50;97744.53;;;30.87;50.36
77410;BME280;66481;51.332;22.804;2023-08-06T09:18:52;97758.94;;;30.25;50.86
77410;BME280;66481;51.332;22.804;2023-08-06T09:22:53;97768.91;;;30.59;51.34
77410;BME280;66481;51.332;22.804;2023-08-06T09:26:54;97742.25;;;30.75;50.36
77410;BME280;66481;51.332;22.804;2023-08-06T09:30:55;97734.91;;;30.95;49.44
77410;BME280;66481;51.332;22.804;2023-08-06T09:34:56;97736.88;;;31.27;48.98
77410;BME280;66481;51.332;22.804;2023-08-06T09:38:57;97728.69;;;31.08;49.10
77410;BME280;66481;51.332;22.804;2023-08-06T09:42:59;97711.28;;;31.56;48.11
77410;BME280;66481;51.332;22.804;2023-08-06T09:47:02;97706.72;;;31.32;48.50
77410;BME280;66481;51.332;22.804;2023-08-06T09:51:05;97700.75;;;31.63;49.39
77410;BME280;66481;51.332;22.804;2023-08-06T09:55:11;97700.19;;;31.94;47.16
77410;BME280;66481;51.332;22.804;2023-08-06T09:59:13;97702.03;;;31.00;49.12
77410;BME280;66481;51.332;22.804;2023-08-06T10:03:14;97708.97;;;31.44;49.44
77410;BME280;66481;51.332;22.804;2023-08-06T10:07:19;97695.00;;;31.45;49.21
77410;BME280;66481;51.332;22.804;2023-08-06T10:11:24;97685.09;;;31.36;48.98
77410;BME280;66481;51.332;22.804;2023-08-06T10:15:31;97702.22;;;30.46;51.69
77410;BME280;66481;51.332;22.804;2023-08-06T10:19:33;97693.81;;;30.81;50.59
77410;BME280;66481;51.332;22.804;2023-08-06T10:23:36;97685.50;;;30.72;51.31
77410;BME280;66481;51.332;22.804;2023-08-06T10:27:53;97689.81;;;30.73;50.72
77410;BME280;66481;51.332;22.804;2023-08-06T10:32:03;97688.50;;;30.70;50.23
77410;BME280;66481;51.332;22.804;2023-08-06T10:36:08;97667.81;;;30.83;50.15
77410;BME280;66481;51.332;22.804;2023-08-06T10:40:10;97668.88;;;30.68;50.19
77410;BME280;66481;51.332;22.804;2023-08-06T10:44:11;97656.03;;;30.88;50.49
77410;BME280;66481;51.332;22.804;2023-08-06T10:48:28;97657.53;;;30.80;51.76
77410;BME280;66481;51.332;22.804;2023-08-06T10:52:30;97661.34;;;30.41;52.78
77410;BME280;66481;51.332;22.804;2023-08-06T10:56:31;97638.84;;;30.06;53.61
77410;BME280;66481;51.332;22.804;2023-08-06T11:00:33;97640.78;;;30.25;52.11
77410;BME280;66481;51.332;22.804;2023-08-06T11:04:34;97631.69;;;30.10;51.92
77410;BME280;66481;51.332;22.804;2023-08-06T11:08:37;97633.91;;;30.08;52.48
77410;BME280;66481;51.332;22.804;2023-08-06T11:12:39;97621.56;;;29.38;54.88
77410;BME280;66481;51.332;22.804;2023-08-06T11:16:41;97606.13;;;29.82;54.00
77410;BME280;66481;51.332;22.804;2023-08-06T11:20:42;97568.88;;;30.15;52.66
77410;BME280;66481;51.332;22.804;2023-08-06T11:24:43;97591.03;;;30.52;51.86
77410;BME280;66481;51.332;22.804;2023-08-06T11:28:45;97562.41;;;30.68;52.80
77410;BME280;66481;51.332;22.804;2023-08-06T11:32:49;97567.66;;;30.65;53.81
77410;BME280;66481;51.332;22.804;2023-08-06T11:36:53;97578.72;;;30.54;53.84
77410;BME280;66481;51.332;22.804;2023-08-06T11:40:54;97585.88;;;31.02;53.10
77410;BME280;66481;51.332;22.804;2023-08-06T11:44:56;97585.47;;;30.76;53.91
77410;BME280;66481;51.332;22.804;2023-08-06T11:48:58;97579.97;;;31.28;52.67
77410;BME280;66481;51.332;22.804;2023-08-06T11:53:00;97563.44;;;31.05;52.80
77410;BME280;66481;51.332;22.804;2023-08-06T11:57:06;97575.88;;;30.22;54.09
77410;BME280;66481;51.332;22.804;2023-08-06T12:01:18;97588.09;;;30.05;54.65
77410;BME280;66481;51.332;22.804;2023-08-06T12:05:36;97591.53;;;30.54;53.88
77410;BME280;66481;51.332;22.804;2023-08-06T12:09:53;97600.88;;;29.61;54.47
77410;BME280;66481;51.332;22.804;2023-08-06T12:13:56;97596.53;;;29.31;56.37
77410;BME280;66481;51.332;22.804;2023-08-06T12:18:04;97596.22;;;30.29;54.01
77410;BME280;66481;51.332;22.804;2023-08-06T12:22:09;97600.44;;;29.78;54.70
77410;BME280;66481;51.332;22.804;2023-08-06T12:26:13;97603.84;;;29.06;56.15
77410;BME280;66481;51.332;22.804;2023-08-06T12:30:19;97606.19;;;28.84;56.18
77410;BME280;66481;51.332;22.804;2023-08-06T12:34:34;97602.19;;;28.76;57.33
77410;BME280;66481;51.332;22.804;2023-08-06T12:38:40;97595.78;;;28.51;58.29
77410;BME280;66481;51.332;22.804;2023-08-06T12:42:43;97592.84;;;28.43;59.04
77410;BME280;66481;51.332;22.804;2023-08-06T12:46:45;97605.19;;;28.30;59.92
77410;BME280;66481;51.332;22.804;2023-08-06T12:50:46;97606.88;;;28.21;60.45
77410;BME280;66481;51.332;22.804;2023-08-06T12:54:49;97596.63;;;27.97;60.83
77410;BME280;66481;51.332;22.804;2023-08-06T12:59:02;97589.03;;;27.89;62.17
77410;BME280;66481;51.332;22.804;2023-08-06T13:03:19;97582.59;;;27.64;62.98
77410;BME280;66481;51.332;22.804;2023-08-06T13:07:24;97575.63;;;27.37;63.54
77410;BME280;66481;51.332;22.804;2023-08-06T13:11:28;97574.78;;;27.21;63.67
77410;BME280;66481;51.332;22.804;2023-08-06T13:15:33;97567.50;;;27.01;65.13
77410;BME280;66481;51.332;22.804;2023-08-06T13:19:48;97565.06;;;26.64;68.22
77410;BME280;66481;51.332;22.804;2023-08-06T13:34:40;97784.22;;;20.48;100.00
77410;BME280;66481;51.332;22.804;2023-08-06T13:38:42;97792.81;;;20.20;100.00
77410;BME280;66481;51.332;22.804;2023-08-06T13:42:43;97735.44;;;19.96;100.00
77410;BME280;66481;51.332;22.804;2023-08-06T13:46:58;97679.56;;;20.54;100.00
77410;BME280;66481;51.332;22.804;2023-08-06T13:50:59;97678.34;;;20.98;99.67
77410;BME280;66481;51.332;22.804;2023-08-06T13:55:01;97675.38;;;21.54;99.25
77410;BME280;66481;51.332;22.804;2023-08-06T13:59:19;97679.69;;;21.90;98.39
77410;BME280;66481;51.332;22.804;2023-08-06T14:03:21;97679.19;;;22.05;96.80
77410;BME280;66481;51.332;22.804;2023-08-06T14:07:22;97664.69;;;22.06;96.19
77410;BME280;66481;51.332;22.804;2023-08-06T14:11:23;97655.09;;;21.98;95.07
77410;BME280;66481;51.332;22.804;2023-08-06T14:15:24;97654.75;;;21.95;96.20
77410;BME280;66481;51.332;22.804;2023-08-06T14:19:25;97659.34;;;21.83;96.87
77410;BME280;66481;51.332;22.804;2023-08-06T14:23:26;97680.53;;;21.79;97.27
77410;BME280;66481;51.332;22.804;2023-08-06T14:27:29;97693.75;;;21.81;97.85
77410;BME280;66481;51.332;22.804;2023-08-06T14:31:41;97685.41;;;21.94;99.58
77410;BME280;66481;51.332;22.804;2023-08-06T14:35:50;97683.44;;;22.01;100.00
77410;BME280;66481;51.332;22.804;2023-08-06T14:39:54;97680.56;;;22.20;100.00
77410;BME280;66481;51.332;22.804;2023-08-06T14:44:00;97673.94;;;22.51;99.49
77410;BME280;66481;51.332;22.804;2023-08-06T14:48:10;97655.53;;;22.77;99.06
77410;BME280;66481;51.332;22.804;2023-08-06T14:52:13;97662.28;;;23.08;98.58
77410;BME280;66481;51.332;22.804;2023-08-06T14:56:16;97655.09;;;23.14;98.76
77410;BME280;66481;51.332;22.804;2023-08-06T15:00:24;97655.00;;;23.25;98.54
77410;BME280;66481;51.332;22.804;2023-08-06T15:04:45;97642.91;;;23.11;100.00
77410;BME280;66481;51.332;22.804;2023-08-06T15:09:09;97636.53;;;23.17;98.82
77410;BME280;66481;51.332;22.804;2023-08-06T15:13:18;97641.09;;;23.17;96.99
77410;BME280;66481;51.332;22.804;2023-08-06T15:17:20;97645.13;;;23.14;98.52
77410;BME280;66481;51.332;22.804;2023-08-06T15:21:29;97658.06;;;23.12;98.50
77410;BME280;66481;51.332;22.804;2023-08-06T15:25:35;97651.66;;;23.18;98.17
77410;BME280;66481;51.332;22.804;2023-08-06T15:29:38;97656.97;;;23.13;97.07
77410;BME280;66481;51.332;22.804;2023-08-06T15:33:48;97661.47;;;23.07;99.13
77410;BME280;66481;51.332;22.804;2023-08-06T15:37:57;97662.75;;;23.05;99.26
77410;BME280;66481;51.332;22.804;2023-08-06T15:42:07;97654.59;;;23.00;98.91
77410;BME280;66481;51.332;22.804;2023-08-06T15:46:20;97670.16;;;22.98;98.80
77410;BME280;66481;51.332;22.804;2023-08-06T15:50:30;97678.25;;;22.81;100.00
77410;BME280;66481;51.332;22.804;2023-08-06T15:54:38;97678.78;;;22.66;100.00
77410;BME280;66481;51.332;22.804;2023-08-06T16:03:40;97688.66;;;22.31;100.00
77410;BME280;66481;51.332;22.804;2023-08-06T16:07:51;97684.09;;;22.20;100.00
77410;BME280;66481;51.332;22.804;2023-08-06T16:12:03;97666.88;;;22.09;100.00
77410;BME280;66481;51.332;22.804;2023-08-06T16:16:20;97696.19;;;21.94;100.00
77410;BME280;66481;51.332;22.804;2023-08-06T16:20:47;97741.78;;;21.84;100.00
77410;BME280;66481;51.332;22.804;2023-08-06T16:24:58;97714.59;;;21.85;100.00
77410;BME280;66481;51.332;22.804;2023-08-06T16:29:04;97677.16;;;21.72;100.00
77410;BME280;66481;51.332;22.804;2023-08-06T16:33:06;97687.56;;;21.56;100.00
77410;BME280;66481;51.332;22.804;2023-08-06T16:37:09;97692.25;;;21.49;100.00
77410;BME280;66481;51.332;22.804;2023-08-06T16:41:19;97708.22;;;21.32;100.00
77410;BME280;66481;51.332;22.804;2023-08-06T16:45:22;97734.09;;;20.91;100.00
77410;BME280;66481;51.332;22.804;2023-08-06T16:49:28;97778.91;;;20.60;100.00
77410;BME280;66481;51.332;22.804;2023-08-06T16:53:45;97745.94;;;20.53;100.00
77410;BME280;66481;51.332;22.804;2023-08-06T16:57:50;97744.31;;;20.52;100.00
77410;BME280;66481;51.332;22.804;2023-08-06T17:02:03;97708.53;;;20.52;100.00
77410;BME280;66481;51.332;22.804;2023-08-06T17:06:11;97708.09;;;20.55;100.00
77410;BME280;66481;51.332;22.804;2023-08-06T17:10:19;97712.28;;;20.51;100.00
77410;BME280;66481;51.332;22.804;2023-08-06T17:14:29;97718.78;;;20.43;100.00
77410;BME280;66481;51.332;22.804;2023-08-06T17:18:40;97722.28;;;20.43;100.00
77410;BME280;66481;51.332;22.804;2023-08-06T17:22:54;97711.88;;;20.35;100.00
77410;BME280;66481;51.332;22.804;2023-08-06T17:27:02;97713.81;;;20.28;100.00
77410;BME280;66481;51.332;22.804;2023-08-06T17:31:17;97725.53;;;20.15;100.00
77410;BME280;66481;51.332;22.804;2023-08-06T17:35:29;97752.66;;;20.07;100.00
77410;BME280;66481;51.332;22.804;2023-08-06T17:39:57;97765.25;;;19.88;100.00
77410;BME280;66481;51.332;22.804;2023-08-06T17:44:07;97770.75;;;19.75;100.00
77410;BME280;66481;51.332;22.804;2023-08-06T17:48:13;97770.41;;;19.64;100.00
77410;BME280;66481;51.332;22.804;2023-08-06T17:52:28;97775.56;;;19.66;100.00
77410;BME280;66481;51.332;22.804;2023-08-06T17:56:43;97774.53;;;19.60;100.00
77410;BME280;66481;51.332;22.804;2023-08-06T18:00:55;97785.44;;;19.65;100.00
77410;BME280;66481;51.332;22.804;2023-08-06T18:05:08;97782.81;;;19.59;100.00
77410;BME280;66481;51.332;22.804;2023-08-06T18:09:24;97788.59;;;19.62;100.00
77410;BME280;66481;51.332;22.804;2023-08-06T18:13:31;97773.94;;;19.58;100.00
77410;BME280;66481;51.332;22.804;2023-08-06T18:23:02;97762.25;;;19.52;100.00
77410;BME280;66481;51.332;22.804;2023-08-06T18:27:06;97771.78;;;19.48;100.00
77410;BME280;66481;51.332;22.804;2023-08-06T18:31:13;97788.94;;;19.41;100.00
77410;BME280;66481;51.332;22.804;2023-08-06T18:35:15;97794.91;;;19.43;100.00
77410;BME280;66481;51.332;22.804;2023-08-06T18:39:16;97785.28;;;19.35;100.00
77410;BME280;66481;51.332;22.804;2023-08-06T18:43:18;97776.25;;;19.29;100.00
77410;BME280;66481;51.332;22.804;2023-08-06T18:47:20;97784.47;;;19.34;100.00
77410;BME280;66481;51.332;22.804;2023-08-06T18:51:21;97776.00;;;19.31;100.00
77410;BME280;66481;51.332;22.804;2023-08-06T18:55:24;97766.97;;;19.25;100.00
77410;BME280;66481;51.332;22.804;2023-08-06T18:59:25;97765.34;;;19.24;100.00
77410;BME280;66481;51.332;22.804;2023-08-06T19:03:27;97787.66;;;19.18;100.00
77410;BME280;66481;51.332;22.804;2023-08-06T19:07:33;97787.06;;;19.16;100.00
77410;BME280;66481;51.332;22.804;2023-08-06T19:11:37;97786.44;;;19.14;100.00
77410;BME280;66481;51.332;22.804;2023-08-06T19:15:46;97781.09;;;19.14;100.00
77410;BME280;66481;51.332;22.804;2023-08-06T19:19:49;97769.75;;;19.12;100.00
77410;BME280;66481;51.332;22.804;2023-08-06T19:23:51;97782.53;;;19.10;100.00
77410;BME280;66481;51.332;22.804;2023-08-06T19:27:52;97776.16;;;19.11;100.00
77410;BME280;66481;51.332;22.804;2023-08-06T19:31:54;97774.84;;;19.20;100.00
77410;BME280;66481;51.332;22.804;2023-08-06T19:35:55;97777.06;;;19.30;100.00
77410;BME280;66481;51.332;22.804;2023-08-06T19:39:57;97763.13;;;19.14;100.00
77410;BME280;66481;51.332;22.804;2023-08-06T19:43:59;97750.53;;;19.15;100.00
77410;BME280;66481;51.332;22.804;2023-08-06T19:48:00;97741.34;;;19.04;100.00
77410;BME280;66481;51.332;22.804;2023-08-06T19:52:01;97742.44;;;18.96;100.00
77410;BME280;66481;51.332;22.804;2023-08-06T19:56:04;97721.91;;;18.70;100.00
77410;BME280;66481;51.332;22.804;2023-08-06T20:00:06;97726.09;;;18.59;100.00
77410;BME280;66481;51.332;22.804;2023-08-06T20:04:07;97727.44;;;18.37;100.00
77410;BME280;66481;51.332;22.804;2023-08-06T20:08:09;97718.63;;;18.30;100.00
77410;BME280;66481;51.332;22.804;2023-08-06T20:12:10;97726.47;;;18.18;100.00
77410;BME280;66481;51.332;22.804;2023-08-06T20:16:11;97724.47;;;18.07;100.00
77410;BME280;66481;51.332;22.804;2023-08-06T20:20:13;97721.81;;;18.07;100.00
77410;BME280;66481;51.332;22.804;2023-08-06T20:24:14;97725.09;;;17.95;100.00
77410;BME280;66481;51.332;22.804;2023-08-06T20:28:16;97721.22;;;17.71;100.00
77410;BME280;66481;51.332;22.804;2023-08-06T20:32:17;97733.59;;;17.52;100.00
77410;BME280;66481;51.332;22.804;2023-08-06T20:36:18;97752.53;;;17.31;100.00
77410;BME280;66481;51.332;22.804;2023-08-06T20:40:20;97755.97;;;17.18;100.00
77410;BME280;66481;51.332;22.804;2023-08-06T20:44:21;97760.91;;;17.07;100.00
77410;BME280;66481;51.332;22.804;2023-08-06T20:48:24;97757.19;;;16.95;100.00
77410;BME280;66481;51.332;22.804;2023-08-06T20:52:26;97766.38;;;16.79;100.00
77410;BME280;66481;51.332;22.804;2023-08-06T20:56:28;97771.25;;;16.69;100.00
77410;BME280;66481;51.332;22.804;2023-08-06T21:00:30;97765.47;;;16.59;100.00
77410;BME280;66481;51.332;22.804;2023-08-06T21:04:31;97766.06;;;16.47;100.00
77410;BME280;66481;51.332;22.804;2023-08-06T21:08:34;97776.47;;;16.35;100.00
77410;BME280;66481;51.332;22.804;2023-08-06T21:12:35;97772.31;;;16.26;100.00
77410;BME280;66481;51.332;22.804;2023-08-06T21:16:36;97785.84;;;16.18;100.00
77410;BME280;66481;51.332;22.804;2023-08-06T21:20:39;97786.22;;;16.15;100.00
77410;BME280;66481;51.332;22.804;2023-08-06T21:24:40;97806.91;;;16.06;100.00
77410;BME280;66481;51.332;22.804;2023-08-06T21:28:41;97819.84;;;16.09;100.00
77410;BME280;66481;51.332;22.804;2023-08-06T21:32:42;97820.47;;;16.11;100.00